createdAt,value
2017-03-01T00:00:04.690Z,21.19
2017-03-01T00:01:04.702Z,21.22
2017-03-01T00:02:03.931Z,21.21
2017-03-01T00:03:04.608Z,21.24
2017-03-01T00:04:04.784Z,21.12
2017-03-01T00:05:04.813Z,21.12
2017-03-01T00:06:04.830Z,21.12
2017-03-01T00:07:04.870Z,21.04
2017-03-01T00:08:04.751Z,21.06
2017-03-01T00:09:04.124Z,21.16
2017-03-01T00:10:04.153Z,21.13
2017-03-01T00:11:04.570Z,21.13
2017-03-01T00:12:04.998Z,21.17
2017-03-01T00:13:04.475Z,21.14
2017-03-01T00:14:05.056Z,21.1
2017-03-01T00:15:04.685Z,21.07
2017-03-01T00:16:05.110Z,21.06
2017-03-01T00:17:05.131Z,21.07
2017-03-01T00:18:05.026Z,21.04
2017-03-01T00:19:04.787Z,21.06
2017-03-01T00:20:04.815Z,20.99
2017-03-01T00:21:04.869Z,21.04
2017-03-01T00:22:04.874Z,21.04
2017-03-01T00:23:05.143Z,20.97
2017-03-01T00:24:04.926Z,21.03
2017-03-01T00:25:05.352Z,21.03
2017-03-01T00:26:05.000Z,20.95
2017-03-01T00:27:05.410Z,21.09
2017-03-01T00:28:05.286Z,20.91
2017-03-01T00:29:05.464Z,20.97
2017-03-01T00:30:05.488Z,20.94
2017-03-01T00:31:05.120Z,20.99
2017-03-01T00:32:05.133Z,20.95
2017-03-01T00:33:05.410Z,20.92
2017-03-01T00:34:05.587Z,20.97
2017-03-01T00:35:05.619Z,20.94
2017-03-01T00:36:04.862Z,20.95
2017-03-01T00:37:04.917Z,20.98
2017-03-01T00:38:05.569Z,20.95
2017-03-01T00:39:05.320Z,20.89
2017-03-01T00:40:05.352Z,20.98
2017-03-01T00:41:05.788Z,20.84
2017-03-01T00:42:05.013Z,21.03
2017-03-01T00:43:05.681Z,20.94
2017-03-01T00:44:05.058Z,21.01
2017-03-01T00:45:05.487Z,20.99
2017-03-01T00:46:05.515Z,20.95
2017-03-01T00:47:05.153Z,20.89
2017-03-01T00:48:05.421Z,20.87
2017-03-01T00:49:05.606Z,20.88
2017-03-01T00:50:05.639Z,20.87
2017-03-01T00:51:06.040Z,20.87
2017-03-01T00:52:06.073Z,20.87
2017-03-01T00:53:05.952Z,20.87
2017-03-01T00:54:05.318Z,20.87
2017-03-01T00:55:06.151Z,20.88
2017-03-01T00:56:05.785Z,20.92
2017-03-01T00:57:05.412Z,20.88
2017-03-01T00:58:06.091Z,20.88
2017-03-01T00:59:06.272Z,20.88
2017-03-01T01:00:05.912Z,20.85
2017-03-01T01:01:06.307Z,20.87
2017-03-01T01:02:05.572Z,20.88
2017-03-01T01:03:05.841Z,20.72
2017-03-01T01:04:06.389Z,20.74
2017-03-01T01:05:06.016Z,20.87
2017-03-01T01:06:06.057Z,20.76
2017-03-01T01:07:06.466Z,20.85
2017-03-01T01:08:05.959Z,20.8
2017-03-01T01:09:05.757Z,20.77
2017-03-01T01:10:06.165Z,20.76
2017-03-01T01:11:06.589Z,20.8
2017-03-01T01:12:06.207Z,20.79
2017-03-01T01:13:06.487Z,20.77
2017-03-01T01:14:06.651Z,20.77
2017-03-01T01:15:06.293Z,20.8
2017-03-01T01:16:06.316Z,20.7
2017-03-01T01:17:06.735Z,20.7
2017-03-01T01:18:06.614Z,20.7
2017-03-01T01:19:06.392Z,20.74
2017-03-01T01:20:06.411Z,20.8
2017-03-01T01:21:06.440Z,20.79
2017-03-01T01:22:06.469Z,20.7
2017-03-01T01:23:06.507Z,20.67
2017-03-01T01:24:06.144Z,20.74
2017-03-01T01:25:06.945Z,20.7
2017-03-01T01:26:06.597Z,20.7
2017-03-01T01:27:06.614Z,20.64
2017-03-01T01:28:07.022Z,20.69
2017-03-01T01:29:06.659Z,20.73
2017-03-01T01:30:06.707Z,20.74
2017-03-01T01:31:06.315Z,20.72
2017-03-01T01:32:07.134Z,20.77
2017-03-01T01:33:07.166Z,20.58
2017-03-01T01:34:06.799Z,20.72
2017-03-01T01:35:06.831Z,20.59
2017-03-01T01:36:07.234Z,20.66
2017-03-01T01:37:07.279Z,20.7
2017-03-01T01:38:06.919Z,20.66
2017-03-01T01:39:06.951Z,20.66
2017-03-01T01:40:07.343Z,20.64
2017-03-01T01:41:07.380Z,20.66
2017-03-01T01:42:07.392Z,20.66
2017-03-01T01:43:07.434Z,20.62
2017-03-01T01:44:07.447Z,20.72
2017-03-01T01:45:06.683Z,20.59
2017-03-01T01:46:06.716Z,20.66
2017-03-01T01:47:07.529Z,20.73
2017-03-01T01:48:07.560Z,20.59
2017-03-01T01:49:06.786Z,20.61
2017-03-01T01:50:07.607Z,20.66
2017-03-01T01:51:06.843Z,20.73
2017-03-01T01:52:07.276Z,20.66
2017-03-01T01:53:07.694Z,20.66
2017-03-01T01:54:07.198Z,20.62
2017-03-01T01:55:07.347Z,20.62
2017-03-01T01:56:06.988Z,20.62
2017-03-01T01:57:07.405Z,20.58
2017-03-01T01:58:07.438Z,20.62
2017-03-01T01:59:07.323Z,20.58
2017-03-01T02:00:07.887Z,20.66
2017-03-01T02:01:07.904Z,20.66
2017-03-01T02:02:07.946Z,20.55
2017-03-01T02:03:07.169Z,20.58
2017-03-01T02:04:07.456Z,20.66
2017-03-01T02:05:08.022Z,20.62
2017-03-01T02:06:07.652Z,20.62
2017-03-01T02:07:07.668Z,20.54
2017-03-01T02:08:07.693Z,20.55
2017-03-01T02:09:07.966Z,20.61
2017-03-01T02:10:08.146Z,20.51
2017-03-01T02:11:08.170Z,20.54
2017-03-01T02:12:07.419Z,20.55
2017-03-01T02:13:07.824Z,20.55
2017-03-01T02:14:07.717Z,20.57
2017-03-01T02:15:07.878Z,20.61
2017-03-01T02:16:07.906Z,20.58
2017-03-01T02:17:08.327Z,20.42
2017-03-01T02:18:07.949Z,20.52
2017-03-01T02:19:08.641Z,20.54
2017-03-01T02:20:08.405Z,20.51
2017-03-01T02:21:08.442Z,20.58
2017-03-01T02:22:08.062Z,20.51
2017-03-01T02:23:08.099Z,20.55
2017-03-01T02:24:08.372Z,20.47
2017-03-01T02:25:07.753Z,20.48
2017-03-01T02:26:08.169Z,20.52
2017-03-01T02:27:08.602Z,20.48
2017-03-01T02:28:08.226Z,20.54
2017-03-01T02:29:08.912Z,20.48
2017-03-01T02:30:08.665Z,20.5
2017-03-01T02:31:08.713Z,20.54
2017-03-01T02:32:08.722Z,20.43
2017-03-01T02:33:08.762Z,20.43
2017-03-01T02:34:08.235Z,20.55
2017-03-01T02:35:08.418Z,20.52
2017-03-01T02:36:08.856Z,20.48
2017-03-01T02:37:08.861Z,20.48
2017-03-01T02:38:08.090Z,20.55
2017-03-01T02:39:08.775Z,20.5
2017-03-01T02:40:08.548Z,20.41
2017-03-01T02:41:08.974Z,20.51
2017-03-01T02:42:08.989Z,20.41
2017-03-01T02:43:08.232Z,20.5
2017-03-01T02:44:09.318Z,20.41
2017-03-01T02:45:08.663Z,20.42
2017-03-01T02:46:08.708Z,20.39
2017-03-01T02:47:08.732Z,20.41
2017-03-01T02:48:08.770Z,20.38
2017-03-01T02:49:09.431Z,20.51
2017-03-01T02:50:08.801Z,20.51
2017-03-01T02:51:09.228Z,20.39
2017-03-01T02:52:08.865Z,20.41
2017-03-01T02:53:09.281Z,20.42
2017-03-01T02:54:09.571Z,20.39
2017-03-01T02:55:09.342Z,20.47
2017-03-01T02:56:08.567Z,20.41
2017-03-01T02:57:08.976Z,20.47
2017-03-01T02:58:09.432Z,20.35
2017-03-01T02:59:09.038Z,20.41
2017-03-01T03:00:09.071Z,20.48
2017-03-01T03:01:09.500Z,20.39
2017-03-01T03:02:09.516Z,20.33
2017-03-01T03:03:09.153Z,20.33
2017-03-01T03:04:09.201Z,20.36
2017-03-01T03:05:09.596Z,20.35
2017-03-01T03:06:09.219Z,20.33
2017-03-01T03:07:09.288Z,20.31
2017-03-01T03:08:09.669Z,20.35
2017-03-01T03:09:09.311Z,20.38
2017-03-01T03:10:09.330Z,20.33
2017-03-01T03:11:09.755Z,20.33
2017-03-01T03:12:09.780Z,20.36
2017-03-01T03:13:09.412Z,20.35
2017-03-01T03:14:09.437Z,20.39
2017-03-01T03:15:09.881Z,20.33
2017-03-01T03:16:09.890Z,20.35
2017-03-01T03:17:09.535Z,20.36
2017-03-01T03:18:09.561Z,20.31
2017-03-01T03:19:09.180Z,20.36
2017-03-01T03:20:09.189Z,20.35
2017-03-01T03:21:10.025Z,20.33
2017-03-01T03:22:09.666Z,20.31
2017-03-01T03:23:10.092Z,20.35
2017-03-01T03:24:10.108Z,20.31
2017-03-01T03:25:09.337Z,20.31
2017-03-01T03:26:09.769Z,20.31
2017-03-01T03:27:09.778Z,20.32
2017-03-01T03:28:09.799Z,20.28
2017-03-01T03:29:09.844Z,20.32
2017-03-01T03:30:10.117Z,20.31
2017-03-01T03:31:09.496Z,20.33
2017-03-01T03:32:09.918Z,20.28
2017-03-01T03:33:10.331Z,20.29
2017-03-01T03:34:10.367Z,20.29
2017-03-01T03:35:10.660Z,20.35
2017-03-01T03:36:10.429Z,20.32
2017-03-01T03:37:09.641Z,20.35
2017-03-01T03:38:10.474Z,20.31
2017-03-01T03:39:10.107Z,20.32
2017-03-01T03:40:10.375Z,20.32
2017-03-01T03:41:09.768Z,20.31
2017-03-01T03:42:09.780Z,20.35
2017-03-01T03:43:10.606Z,20.32
2017-03-01T03:44:10.623Z,20.29
2017-03-01T03:45:10.904Z,20.23
2017-03-01T03:46:10.280Z,20.31
2017-03-01T03:47:10.305Z,20.31
2017-03-01T03:48:10.730Z,20.24
2017-03-01T03:49:10.355Z,20.21
2017-03-01T03:50:10.646Z,20.28
2017-03-01T03:51:10.024Z,20.26
2017-03-01T03:52:10.853Z,20.24
2017-03-01T03:53:10.862Z,20.29
2017-03-01T03:54:10.494Z,20.24
2017-03-01T03:55:11.179Z,20.26
2017-03-01T03:56:10.951Z,20.13
2017-03-01T03:57:10.568Z,20.26
2017-03-01T03:58:10.992Z,20.24
2017-03-01T03:59:10.650Z,20.26
2017-03-01T04:00:11.291Z,20.18
2017-03-01T04:01:10.686Z,20.17
2017-03-01T04:02:10.304Z,20.23
2017-03-01T04:03:10.359Z,20.23
2017-03-01T04:04:11.150Z,20.18
2017-03-01T04:05:11.031Z,20.14
2017-03-01T04:06:10.810Z,20.18
2017-03-01T04:07:11.236Z,20.18
2017-03-01T04:08:10.857Z,20.21
2017-03-01T04:09:10.493Z,20.17
2017-03-01T04:10:11.162Z,20.18
2017-03-01T04:11:10.939Z,20.21
2017-03-01T04:12:10.564Z,20.24
2017-03-01T04:13:11.385Z,20.2
2017-03-01T04:14:11.009Z,20.18
2017-03-01T04:15:10.897Z,20.17
2017-03-01T04:16:10.683Z,20.14
2017-03-01T04:17:11.495Z,20.17
2017-03-01T04:18:11.536Z,20.24
2017-03-01T04:19:11.553Z,20.21
2017-03-01T04:20:11.421Z,20.17
2017-03-01T04:21:11.199Z,20.2
2017-03-01T04:22:11.626Z,20.14
2017-03-01T04:23:11.252Z,20.17
2017-03-01T04:24:11.677Z,20.26
2017-03-01T04:25:11.565Z,20.11
2017-03-01T04:26:11.330Z,20.14
2017-03-01T04:27:11.359Z,20.18
2017-03-01T04:28:11.388Z,20.21
2017-03-01T04:29:11.420Z,20.17
2017-03-01T04:30:11.289Z,20.23
2017-03-01T04:31:11.880Z,20.14
2017-03-01T04:32:11.094Z,20.26
2017-03-01T04:33:11.519Z,20.24
2017-03-01T04:34:11.952Z,20.13
2017-03-01T04:35:12.244Z,20.14
2017-03-01T04:36:11.606Z,20.13
2017-03-01T04:37:11.222Z,20.17
2017-03-01T04:38:12.046Z,20.14
2017-03-01T04:39:11.303Z,20.21
2017-03-01T04:40:12.347Z,20.21
2017-03-01T04:41:12.137Z,20.18
2017-03-01T04:42:12.153Z,20.2
2017-03-01T04:43:11.790Z,20.17
2017-03-01T04:44:12.194Z,20.13
2017-03-01T04:45:12.482Z,20.21
2017-03-01T04:46:11.855Z,20.17
2017-03-01T04:47:12.277Z,20.17
2017-03-01T04:48:11.525Z,20.17
2017-03-01T04:49:11.946Z,20.18
2017-03-01T04:50:12.213Z,20.16
2017-03-01T04:51:11.597Z,20.17
2017-03-01T04:52:11.620Z,20.17
2017-03-01T04:53:12.041Z,20.14
2017-03-01T04:54:12.470Z,20.14
2017-03-01T04:55:12.746Z,20.23
2017-03-01T04:56:12.135Z,20.21
2017-03-01T04:57:12.539Z,20.23
2017-03-01T04:58:12.172Z,20.03
2017-03-01T04:59:12.589Z,20.14
2017-03-01T05:00:12.885Z,20.05
2017-03-01T05:01:12.266Z,20.17
2017-03-01T05:02:11.883Z,20.14
2017-03-01T05:03:12.699Z,20.14
2017-03-01T05:04:12.331Z,20.06
2017-03-01T05:05:13.017Z,20.06
2017-03-01T05:06:11.986Z,20.13
2017-03-01T05:07:12.423Z,20.17
2017-03-01T05:08:12.828Z,20.03
2017-03-01T05:09:12.463Z,20.05
2017-03-01T05:10:13.132Z,19.99
2017-03-01T05:11:12.918Z,20.17
2017-03-01T05:12:12.543Z,20.05
2017-03-01T05:13:12.575Z,20.08
2017-03-01T05:14:12.993Z,20.06
2017-03-01T05:15:13.276Z,20.03
2017-03-01T05:16:12.646Z,20.03
2017-03-01T05:17:12.286Z,19.99
2017-03-01T05:18:12.703Z,20.17
2017-03-01T05:19:12.732Z,20.17
2017-03-01T05:20:12.999Z,20.16
2017-03-01T05:21:12.781Z,20.18
2017-03-01T05:22:13.202Z,20.14
2017-03-01T05:23:13.223Z,20.18
2017-03-01T05:24:12.468Z,20.16
2017-03-01T05:25:13.539Z,20.17
2017-03-01T05:26:12.900Z,20.21
2017-03-01T05:27:12.549Z,20.13
2017-03-01T05:28:12.978Z,20.17
2017-03-01T05:29:12.994Z,20.2
2017-03-01T05:30:13.267Z,20.28
2017-03-01T05:31:13.433Z,20.31
2017-03-01T05:32:13.065Z,20.36
2017-03-01T05:33:13.106Z,20.32
2017-03-01T05:34:13.117Z,20.29
2017-03-01T05:35:13.794Z,20.35
2017-03-01T05:36:13.158Z,20.38
2017-03-01T05:37:12.802Z,20.39
2017-03-01T05:38:13.217Z,20.35
2017-03-01T05:39:13.258Z,20.35
2017-03-01T05:40:13.927Z,20.32
2017-03-01T05:41:13.692Z,20.43
2017-03-01T05:42:12.936Z,20.47
2017-03-01T05:43:13.353Z,20.41
2017-03-01T05:44:12.986Z,20.47
2017-03-01T05:45:14.067Z,20.43
2017-03-01T05:46:13.439Z,20.54
2017-03-01T05:47:13.460Z,20.54
2017-03-01T05:48:13.880Z,20.48
2017-03-01T05:49:13.905Z,20.5
2017-03-01T05:50:13.144Z,20.59
2017-03-01T05:51:13.988Z,20.54
2017-03-01T05:52:13.588Z,20.58
2017-03-01T05:53:13.253Z,20.64
2017-03-01T05:54:13.646Z,20.57
2017-03-01T05:55:13.662Z,20.66
2017-03-01T05:56:14.091Z,20.66
2017-03-01T05:57:14.120Z,20.66
2017-03-01T05:58:13.353Z,20.61
2017-03-01T05:59:14.178Z,20.7
2017-03-01T06:00:13.798Z,20.74
2017-03-01T06:01:13.820Z,20.59
2017-03-01T06:02:13.851Z,20.62
2017-03-01T06:03:13.889Z,20.64
2017-03-01T06:04:13.913Z,20.73
2017-03-01T06:05:14.334Z,20.76
2017-03-01T06:06:14.350Z,20.72
2017-03-01T06:07:14.388Z,20.77
2017-03-01T06:08:14.404Z,20.77
2017-03-01T06:09:14.437Z,20.77
2017-03-01T06:10:14.071Z,20.8
2017-03-01T06:11:14.090Z,20.88
2017-03-01T06:12:14.118Z,20.89
2017-03-01T06:13:14.543Z,20.88
2017-03-01T06:14:14.177Z,20.88
2017-03-01T06:15:14.601Z,20.92
2017-03-01T06:16:14.266Z,20.87
2017-03-01T06:17:14.247Z,20.87
2017-03-01T06:18:14.673Z,20.98
2017-03-01T06:19:14.301Z,20.88
2017-03-01T06:20:14.333Z,20.91
2017-03-01T06:21:14.374Z,20.94
2017-03-01T06:22:14.387Z,20.94
2017-03-01T06:23:14.832Z,20.97
2017-03-01T06:24:14.824Z,20.97
2017-03-01T06:25:14.857Z,20.98
2017-03-01T06:26:14.485Z,20.99
2017-03-01T06:27:14.515Z,21.07
2017-03-01T06:28:14.163Z,21.09
2017-03-01T06:29:14.960Z,21.1
2017-03-01T06:30:14.601Z,20.95
2017-03-01T06:31:14.230Z,21.04
2017-03-01T06:32:15.041Z,21.04
2017-03-01T06:33:15.080Z,21.03
2017-03-01T06:34:14.716Z,21.04
2017-03-01T06:35:14.740Z,21.12
2017-03-01T06:36:15.153Z,21.16
2017-03-01T06:37:15.174Z,21.1
2017-03-01T06:38:14.411Z,21.13
2017-03-01T06:39:14.832Z,21.13
2017-03-01T06:40:14.861Z,21.13
2017-03-01T06:41:14.889Z,21.14
2017-03-01T06:42:14.913Z,21.16
2017-03-01T06:43:15.347Z,21.14
2017-03-01T06:44:14.955Z,21.16
2017-03-01T06:45:15.000Z,21.13
2017-03-01T06:46:15.009Z,21.16
2017-03-01T06:47:15.062Z,21.19
2017-03-01T06:48:15.470Z,21.1
2017-03-01T06:49:15.500Z,21.14
2017-03-01T06:50:15.520Z,21.19
2017-03-01T06:51:15.145Z,21.22
2017-03-01T06:52:15.180Z,21.21
2017-03-01T06:53:15.215Z,21.16
2017-03-01T06:54:15.632Z,21.17
2017-03-01T06:55:15.269Z,21.22
2017-03-01T06:56:15.296Z,21.19
2017-03-01T06:57:15.741Z,21.24
2017-03-01T06:58:15.342Z,21.22
2017-03-01T06:59:14.977Z,21.24
2017-03-01T07:00:15.391Z,21.24
2017-03-01T07:01:15.816Z,21.27
2017-03-01T07:02:15.461Z,21.27
2017-03-01T07:03:15.477Z,21.25
2017-03-01T07:04:15.511Z,21.31
2017-03-01T07:05:15.528Z,21.28
2017-03-01T07:06:15.953Z,21.21
2017-03-01T07:07:15.582Z,21.22
2017-03-01T07:08:16.004Z,21.22
2017-03-01T07:09:15.630Z,21.28
2017-03-01T07:10:16.068Z,21.24
2017-03-01T07:11:15.688Z,21.24
2017-03-01T07:12:15.745Z,21.27
2017-03-01T07:13:15.749Z,21.43
2017-03-01T07:14:15.766Z,21.38
2017-03-01T07:15:15.790Z,21.37
2017-03-01T07:16:16.092Z,21.31
2017-03-01T07:17:15.474Z,21.38
2017-03-01T07:18:15.482Z,21.34
2017-03-01T07:19:16.299Z,21.34
2017-03-01T07:20:16.343Z,21.38
2017-03-01T07:21:16.203Z,21.38
2017-03-01T07:22:15.972Z,21.34
2017-03-01T07:23:16.013Z,21.47
2017-03-01T07:24:16.038Z,21.38
2017-03-01T07:25:16.459Z,21.37
2017-03-01T07:26:16.339Z,21.4
2017-03-01T07:27:16.113Z,21.37
2017-03-01T07:28:16.553Z,21.38
2017-03-01T07:29:16.166Z,21.38
2017-03-01T07:30:16.186Z,21.34
2017-03-01T07:31:16.865Z,21.38
2017-03-01T07:32:16.669Z,21.34
2017-03-01T07:33:16.272Z,21.37
2017-03-01T07:34:16.690Z,21.37
2017-03-01T07:35:16.342Z,21.34
2017-03-01T07:36:17.010Z,21.37
2017-03-01T07:37:16.379Z,21.32
2017-03-01T07:38:16.028Z,21.4
2017-03-01T07:39:16.438Z,21.42
2017-03-01T07:40:16.473Z,21.34
2017-03-01T07:41:16.739Z,21.35
2017-03-01T07:42:16.920Z,21.32
2017-03-01T07:43:16.585Z,21.34
2017-03-01T07:44:16.566Z,21.44
2017-03-01T07:45:16.595Z,21.35
2017-03-01T07:46:16.878Z,21.37
2017-03-01T07:47:16.647Z,21.38
2017-03-01T07:48:16.688Z,21.32
2017-03-01T07:49:17.096Z,21.4
2017-03-01T07:50:16.741Z,21.29
2017-03-01T07:51:18.906Z,21.38
2017-03-01T07:52:16.391Z,21.4
2017-03-01T07:53:16.409Z,21.32
2017-03-01T07:54:16.832Z,21.37
2017-03-01T07:55:16.474Z,21.32
2017-03-01T07:56:16.738Z,21.32
2017-03-01T07:57:16.934Z,21.24
2017-03-01T07:58:17.339Z,21.24
2017-03-01T07:59:17.372Z,21.35
2017-03-01T08:00:16.612Z,21.24
2017-03-01T08:01:17.674Z,21.28
2017-03-01T08:02:17.062Z,21.27
2017-03-01T08:03:17.067Z,21.31
2017-03-01T08:04:17.128Z,21.29
2017-03-01T08:05:17.537Z,21.34
2017-03-01T08:06:17.554Z,21.14
2017-03-01T08:07:16.799Z,21.29
2017-03-01T08:08:17.621Z,21.24
2017-03-01T08:09:17.628Z,21.21
2017-03-01T08:10:17.687Z,21.17
2017-03-01T08:11:17.304Z,21.25
2017-03-01T08:12:17.318Z,21.24
2017-03-01T08:13:16.950Z,21.24
2017-03-01T08:14:17.372Z,21.1
2017-03-01T08:15:17.412Z,21.17
2017-03-01T08:16:17.837Z,21.25
2017-03-01T08:17:17.458Z,21.17
2017-03-01T08:18:17.492Z,21.21
2017-03-01T08:19:17.915Z,21.19
2017-03-01T08:20:17.540Z,21.14
2017-03-01T08:21:17.958Z,21.21
2017-03-01T08:22:17.986Z,21.24
2017-03-01T08:23:17.614Z,21.16
2017-03-01T08:24:17.637Z,21.17
2017-03-01T08:25:17.667Z,21.21
2017-03-01T08:26:17.295Z,21.16
2017-03-01T08:27:17.318Z,21.16
2017-03-01T08:28:17.763Z,21.16
2017-03-01T08:29:18.168Z,21.16
2017-03-01T08:30:18.215Z,21.17
2017-03-01T08:31:18.234Z,21.12
2017-03-01T08:32:18.302Z,21.13
2017-03-01T08:33:17.910Z,21.14
2017-03-01T08:34:18.298Z,21.17
2017-03-01T08:35:17.931Z,21.14
2017-03-01T08:36:18.012Z,21.22
2017-03-01T08:37:18.244Z,21.09
2017-03-01T08:38:18.422Z,21.14
2017-03-01T08:39:18.046Z,21.19
2017-03-01T08:40:18.084Z,21.13
2017-03-01T08:41:18.108Z,21.16
2017-03-01T08:42:18.371Z,21.13
2017-03-01T08:43:18.543Z,21.14
2017-03-01T08:44:18.591Z,21.1
2017-03-01T08:45:17.811Z,21.13
2017-03-01T08:46:18.239Z,21.06
2017-03-01T08:47:18.904Z,21.07
2017-03-01T08:48:18.681Z,21.12
2017-03-01T08:49:18.323Z,21.09
2017-03-01T08:50:18.744Z,21.09
2017-03-01T08:51:18.396Z,21.1
2017-03-01T08:52:19.045Z,21.07
2017-03-01T08:53:18.814Z,21.07
2017-03-01T08:54:18.844Z,21.07
2017-03-01T08:55:18.470Z,21.07
2017-03-01T08:56:18.899Z,21.1
2017-03-01T08:57:18.780Z,21.04
2017-03-01T08:58:18.557Z,21.07
2017-03-01T08:59:18.580Z,21.07
2017-03-01T09:00:18.602Z,21.04
2017-03-01T09:01:18.231Z,20.99
2017-03-01T09:02:18.920Z,21.03
2017-03-01T09:03:19.086Z,21.07
2017-03-01T09:04:19.118Z,21.03
2017-03-01T09:05:19.151Z,20.99
2017-03-01T09:06:18.775Z,21.01
2017-03-01T09:07:19.443Z,21.03
2017-03-01T09:08:18.820Z,21.06
2017-03-01T09:09:18.849Z,21.03
2017-03-01T09:10:18.878Z,21.01
2017-03-01T09:11:18.910Z,21.01
2017-03-01T09:12:19.577Z,21.06
2017-03-01T09:13:18.571Z,20.95
2017-03-01T09:14:18.617Z,21.04
2017-03-01T09:15:18.632Z,21.01
2017-03-01T09:16:19.435Z,21.1
2017-03-01T09:17:19.315Z,21.04
2017-03-01T09:18:19.099Z,21.06
2017-03-01T09:19:18.775Z,21.06
2017-03-01T09:20:19.557Z,21.1
2017-03-01T09:21:19.174Z,20.97
2017-03-01T09:22:19.446Z,20.97
2017-03-01T09:23:18.852Z,20.92
2017-03-01T09:24:18.880Z,20.98
2017-03-01T09:25:18.892Z,21.07
2017-03-01T09:26:19.707Z,20.94
2017-03-01T09:27:19.190Z,20.94
2017-03-01T09:28:19.372Z,20.98
2017-03-01T09:29:19.388Z,20.97
2017-03-01T09:30:19.809Z,20.95
2017-03-01T09:31:19.061Z,20.98
2017-03-01T09:32:20.114Z,20.95
2017-03-01T09:33:19.903Z,20.94
2017-03-01T09:34:19.912Z,20.97
2017-03-01T09:35:19.933Z,20.95
2017-03-01T09:36:19.978Z,20.94
2017-03-01T09:37:20.258Z,20.98
2017-03-01T09:38:20.026Z,20.99
2017-03-01T09:39:19.263Z,20.95
2017-03-01T09:40:20.085Z,20.94
2017-03-01T09:41:19.709Z,20.99
2017-03-01T09:42:20.385Z,21.01
2017-03-01T09:43:20.166Z,21.03
2017-03-01T09:44:20.179Z,20.94
2017-03-01T09:45:20.224Z,21.04
2017-03-01T09:46:20.236Z,20.92
2017-03-01T09:47:20.133Z,20.92
2017-03-01T09:48:20.285Z,20.98
2017-03-01T09:49:20.318Z,20.94
2017-03-01T09:50:19.947Z,20.98
2017-03-01T09:51:20.388Z,20.95
2017-03-01T09:52:20.644Z,20.97
2017-03-01T09:53:20.028Z,21.03
2017-03-01T09:54:20.463Z,20.94
2017-03-01T09:55:19.703Z,20.95
2017-03-01T09:56:20.108Z,20.88
2017-03-01T09:57:20.776Z,20.91
2017-03-01T09:58:20.157Z,20.89
2017-03-01T09:59:20.599Z,20.92
2017-03-01T10:00:19.835Z,20.95
2017-03-01T10:01:20.263Z,21.04
2017-03-01T10:02:20.276Z,20.95
2017-03-01T10:03:20.293Z,20.88
2017-03-01T10:04:20.726Z,20.82
2017-03-01T10:05:19.962Z,20.91
2017-03-01T10:06:20.375Z,20.85
2017-03-01T10:07:20.812Z,20.84
2017-03-01T10:08:20.832Z,20.89
2017-03-01T10:09:20.476Z,20.94
2017-03-01T10:10:20.086Z,20.89
2017-03-01T10:11:20.539Z,20.91
2017-03-01T10:12:20.551Z,20.84
2017-03-01T10:13:20.568Z,20.89
2017-03-01T10:14:20.588Z,20.89
2017-03-01T10:15:20.222Z,20.88
2017-03-01T10:16:20.250Z,20.88
2017-03-01T10:17:21.088Z,20.79
2017-03-01T10:18:21.100Z,20.84
2017-03-01T10:19:21.132Z,20.89
2017-03-01T10:20:20.765Z,20.8
2017-03-01T10:21:21.178Z,20.82
2017-03-01T10:22:21.208Z,20.87
2017-03-01T10:23:20.839Z,20.82
2017-03-01T10:24:20.497Z,20.76
2017-03-01T10:25:20.889Z,20.77
2017-03-01T10:26:20.537Z,20.76
2017-03-01T10:27:20.939Z,20.77
2017-03-01T10:28:20.968Z,20.79
2017-03-01T10:29:21.399Z,20.79
2017-03-01T10:30:21.428Z,20.79
2017-03-01T10:31:21.061Z,20.77
2017-03-01T10:32:21.074Z,20.8
2017-03-01T10:33:21.359Z,20.85
2017-03-01T10:34:21.572Z,20.87
2017-03-01T10:35:21.548Z,20.82
2017-03-01T10:36:20.790Z,20.77
2017-03-01T10:37:21.614Z,20.82
2017-03-01T10:38:21.891Z,20.91
2017-03-01T10:39:21.656Z,20.87
2017-03-01T10:40:21.302Z,20.85
2017-03-01T10:41:20.932Z,20.79
2017-03-01T10:42:20.966Z,20.89
2017-03-01T10:43:22.005Z,20.84
2017-03-01T10:44:21.394Z,20.88
2017-03-01T10:45:21.827Z,20.87
2017-03-01T10:46:21.845Z,20.89
2017-03-01T10:47:21.081Z,20.87
2017-03-01T10:48:21.358Z,20.85
2017-03-01T10:49:21.133Z,20.88
2017-03-01T10:50:21.955Z,20.84
2017-03-01T10:51:21.192Z,20.88
2017-03-01T10:52:21.613Z,20.92
2017-03-01T10:53:21.896Z,20.87
2017-03-01T10:54:21.662Z,20.84
2017-03-01T10:55:22.096Z,20.95
2017-03-01T10:56:21.340Z,20.89
2017-03-01T10:57:21.756Z,20.85
2017-03-01T10:58:22.425Z,20.95
2017-03-01T10:59:22.198Z,20.87
2017-03-01T11:00:22.235Z,20.89
2017-03-01T11:01:21.847Z,20.88
2017-03-01T11:02:21.886Z,20.85
2017-03-01T11:03:21.504Z,20.87
2017-03-01T11:04:21.941Z,20.91
2017-03-01T11:05:22.354Z,20.85
2017-03-01T11:06:21.612Z,20.8
2017-03-01T11:07:22.025Z,20.89
2017-03-01T11:08:22.432Z,20.91
2017-03-01T11:09:22.065Z,20.91
2017-03-01T11:10:22.480Z,20.87
2017-03-01T11:11:22.122Z,20.88
2017-03-01T11:12:22.147Z,20.88
2017-03-01T11:13:22.172Z,20.85
2017-03-01T11:14:22.196Z,20.89
2017-03-01T11:15:22.236Z,20.77
2017-03-01T11:16:22.253Z,20.85
2017-03-01T11:17:22.685Z,20.85
2017-03-01T11:18:22.322Z,20.88
2017-03-01T11:19:22.730Z,20.87
2017-03-01T11:20:22.760Z,20.85
2017-03-01T11:21:22.788Z,20.98
2017-03-01T11:22:22.012Z,20.88
2017-03-01T11:23:22.054Z,20.87
2017-03-01T11:24:22.471Z,20.99
2017-03-01T11:25:22.887Z,20.98
2017-03-01T11:26:22.525Z,20.97
2017-03-01T11:27:22.934Z,20.95
2017-03-01T11:28:22.206Z,20.98
2017-03-01T11:29:22.995Z,20.87
2017-03-01T11:30:22.630Z,20.94
2017-03-01T11:31:22.664Z,21.03
2017-03-01T11:32:23.088Z,20.87
2017-03-01T11:33:22.712Z,20.92
2017-03-01T11:34:22.729Z,20.95
2017-03-01T11:35:22.767Z,20.94
2017-03-01T11:36:22.792Z,20.94
2017-03-01T11:37:23.221Z,21.03
2017-03-01T11:38:23.238Z,21.07
2017-03-01T11:39:23.266Z,21.03
2017-03-01T11:40:23.295Z,21.01
2017-03-01T11:41:22.927Z,21.07
2017-03-01T11:42:23.360Z,21.07
2017-03-01T11:43:22.972Z,21.09
2017-03-01T11:44:23.257Z,21.12
2017-03-01T11:45:23.421Z,21.07
2017-03-01T11:46:22.666Z,21.13
2017-03-01T11:47:23.480Z,21.13
2017-03-01T11:48:23.124Z,21.19
2017-03-01T11:49:23.786Z,21.09
2017-03-01T11:50:23.561Z,21.16
2017-03-01T11:51:23.585Z,21.14
2017-03-01T11:52:22.826Z,21.24
2017-03-01T11:53:23.264Z,21.31
2017-03-01T11:54:23.926Z,21.25
2017-03-01T11:55:22.901Z,21.25
2017-03-01T11:56:23.721Z,21.27
2017-03-01T11:57:23.353Z,21.31
2017-03-01T11:58:23.383Z,21.31
2017-03-01T11:59:23.656Z,21.34
2017-03-01T12:00:23.832Z,21.37
2017-03-01T12:01:23.873Z,21.4
2017-03-01T12:02:23.882Z,21.38
2017-03-01T12:03:23.518Z,21.37
2017-03-01T12:04:24.200Z,21.44
2017-03-01T12:05:23.583Z,21.44
2017-03-01T12:06:23.601Z,21.43
2017-03-01T12:07:23.230Z,21.47
2017-03-01T12:08:24.067Z,21.53
2017-03-01T12:09:23.963Z,21.49
2017-03-01T12:10:24.116Z,21.4
2017-03-01T12:11:23.730Z,21.47
2017-03-01T12:12:24.160Z,21.44
2017-03-01T12:13:23.789Z,21.46
2017-03-01T12:14:24.472Z,21.4
2017-03-01T12:15:23.459Z,21.42
2017-03-01T12:16:23.868Z,21.37
2017-03-01T12:17:23.900Z,21.35
2017-03-01T12:18:23.929Z,21.4
2017-03-01T12:19:23.806Z,21.4
2017-03-01T12:20:24.374Z,21.38
2017-03-01T12:21:24.015Z,21.35
2017-03-01T12:22:24.032Z,21.35
2017-03-01T12:23:24.453Z,21.4
2017-03-01T12:24:24.738Z,21.28
2017-03-01T12:25:23.749Z,21.37
2017-03-01T12:26:24.139Z,21.34
2017-03-01T12:27:24.567Z,21.32
2017-03-01T12:28:24.197Z,21.31
2017-03-01T12:29:24.471Z,21.22
2017-03-01T12:30:24.645Z,21.37
2017-03-01T12:31:24.694Z,21.21
2017-03-01T12:32:24.315Z,21.31
2017-03-01T12:33:24.729Z,21.22
2017-03-01T12:34:24.608Z,21.27
2017-03-01T12:35:24.786Z,21.25
2017-03-01T12:36:24.419Z,21.24
2017-03-01T12:37:24.841Z,21.28
2017-03-01T12:38:24.460Z,21.32
2017-03-01T12:39:24.752Z,21.28
2017-03-01T12:40:24.930Z,21.24
2017-03-01T12:41:24.965Z,21.17
2017-03-01T12:42:24.182Z,21.21
2017-03-01T12:43:25.029Z,21.13
2017-03-01T12:44:25.305Z,21.17
2017-03-01T12:45:24.657Z,21.22
2017-03-01T12:46:25.086Z,21.17
2017-03-01T12:47:24.711Z,21.17
2017-03-01T12:48:25.150Z,21.24
2017-03-01T12:49:25.415Z,21.21
2017-03-01T12:50:25.202Z,21.19
2017-03-01T12:51:25.221Z,21.25
2017-03-01T12:52:25.280Z,21.07
2017-03-01T12:53:25.294Z,21.17
2017-03-01T12:54:25.151Z,21.19